Terminal Aerodrome Forecast
Issued by NWS

Home | Current Version | Previous Version | Text Only | Print | Product List | Glossary On
Versions: 1 2 3 4 5 6 7 8 9 10 11 12 13 14 15 16 17 18 19 20 21
000
FTUS43 KICT 241021 AAB
TAFSLN
TAF AMD
KSLN 241021Z 2410/2506 10014G19KT P6SM OVC030
     FM241200 09013KT P6SM SCT009 BKN015
     FM241500 02011KT P6SM SCT009 BKN015
     FM241700 32014KT P6SM SCT009 BKN015
     FM241900 33017G24KT P6SM SCT030=

USA.gov is the U.S. government's official web portal to all federal, state and local government web resources and services.